Latest Weather Observations for Melbourne Airport

IDV60901

Issued at 5:21 pm EDT Wednesday 7 December 2022 (issued every 10 minutes, with the page automatically refreshed every 10 minutes)

About weather observations | Map of Melbourne area stations | Latest observations for Melbourne area | Other Formats
Station Details ID: 086282 Name: MELBOURNE AIRPORT Lat: -37.67 Lon: 144.83 Height: 113.4 m
Data from the previous 72 hours. | See also: Recent months at Melbourne Airport
Date/Time
EDT
Temp
°C
App
Temp
°C
Dew
Point
°C
Rel
Hum
%
Delta-T
°C
Wind Press
QNH
hPa
Press
MSL
hPa
Rain since
9am
mm
Dir  Spd
km/h
Gust
km/h
Spd
kts
Gust
kts
07/05:00pm 16.5 11.9 9.7 64 3.6 S 24 33 13 18 1004.6 1004.3 0.0
07/04:30pm 16.9 11.9 9.6 62 3.8 S 26 39 14 21 1004.6 1004.3 0.0
07/04:00pm 17.6 13.0 10.9 65 3.6 S 26 35 14 19 1004.5 1004.2 0.0
07/03:30pm 17.6 12.7 11.2 66 3.5 S 28 37 15 20 1004.4 1004.1 0.0
07/03:00pm 17.8 13.4 11.6 67 3.4 S 26 33 14 18 1004.4 1004.1 0.0
07/02:30pm 18.7 15.9 11.3 62 4.1 S 17 24 9 13 1004.1 1003.8 0.0
07/02:00pm 17.7 13.8 10.8 64 3.7 S 22 30 12 16 1004.4 1004.1 0.0
07/01:30pm 18.6 15.0 10.7 60 4.3 SSW 20 30 11 16 1004.4 1004.1 0.0
07/01:00pm 18.6 15.1 10.9 61 4.2 S 20 32 11 17 1004.4 1004.1 0.0
07/12:30pm 17.6 14.3 11.6 68 3.3 S 20 26 11 14 1004.6 1004.3 0.0
07/12:00pm 19.6 16.9 11.6 60 4.5 SSW 17 26 9 14 1004.3 1004.0 0.0
07/11:30am 18.9 16.4 11.2 61 4.2 SSW 15 19 8 10 1004.5 1004.2 0.0
07/11:00am 17.8 16.5 11.4 66 3.5 SSW 9 15 5 8 1004.6 1004.3 0.0
07/10:30am 16.9 14.8 11.2 69 3.1 SW 13 17 7 9 1004.5 1004.2 0.0
07/10:00am 15.5 14.3 11.7 78 2.1 WSW 9 11 5 6 1004.4 1004.1 0.0
07/09:30am 14.8 14.0 11.6 81 1.7 WSW 7 9 4 5 1004.7 1004.4 0.0
07/09:00am 14.1 12.7 10.9 81 1.7 WSW 9 9 5 5 1004.6 1004.3 0.2
07/08:30am 14.0 14.4 11.3 84 1.4 CALM 0 6 0 3 1004.3 1004.0 0.2
07/08:00am 14.1 12.5 10.1 77 2.1 NNE 9 11 5 6 1004.2 1003.9 0.2
07/07:30am 13.7 12.6 10.5 81 1.7 N 7 9 4 5 1004.2 1003.9 0.2
07/07:00am 12.1 10.5 10.3 89 0.9 NNE 9 9 5 5 1003.9 1003.6 0.2
07/06:30am 10.8 9.0 9.4 91 0.7 N 9 13 5 7 1003.9 1003.6 0.2
07/06:00am 10.6 8.8 9.4 92 0.6 N 9 11 5 6 1003.9 1003.6 0.2
07/05:30am 11.0 9.5 9.3 89 0.9 N 7 9 4 5 1004.0 1003.7 0.2
07/05:00am 11.6 10.2 9.7 88 1.0 N 7 9 4 5 1004.0 1003.7 0.2
07/04:30am 12.1 10.9 10.2 88 1.0 N 7 9 4 5 1004.2 1003.9 0.2
07/04:00am 11.8 10.2 10.2 90 0.8 N 9 11 5 6 1004.3 1004.0 0.2
07/03:30am 11.4 10.0 9.5 88 1.0 N 7 11 4 6 1004.6 1004.3 0.2
07/03:00am 12.0 10.4 10.1 88 1.0 NW 9 11 5 6 1005.0 1004.7 0.2
07/02:30am 12.2 10.6 10.3 88 1.0 WNW 9 13 5 7 1005.4 1005.1 0.2
07/02:00am 12.3 10.6 9.9 85 1.2 WNW 9 11 5 6 1005.7 1005.5 0.2
07/01:30am 12.2 10.5 9.9 86 1.2 W 9 11 5 6 1005.9 1005.7 0.2
07/01:00am 12.0 10.8 9.7 86 1.2 W 6 11 3 6 1006.2 1006.0 0.2
07/12:30am 12.6 11.2 9.6 82 1.5 NW 7 7 4 4 1006.2 1006.0 0.2
07/12:00am 12.5 11.7 9.7 83 1.4 NNE 4 7 2 4 1006.8 1006.5 0.2
 
Date/Time
EDT
Temp
°C
App
Temp
°C
Dew
Point
°C
Rel
Hum
%
Delta-T
°C
Wind Press
QNH
hPa
Press
MSL
hPa
Rain since
9am
mm
Dir  Spd
km/h
Gust
km/h
Spd
kts
Gust
kts
06/11:30pm 12.7 11.5 9.7 82 1.5 W 6 9 3 5 1007.3 1007.0 0.2
06/11:00pm 13.9 13.1 9.5 75 2.3 E 4 9 2 5 1007.3 1007.0 0.2
06/10:30pm 14.6 12.5 9.6 72 2.6 E 11 15 6 8 1007.4 1007.1 0.2
06/10:00pm 14.1 12.9 9.5 74 2.4 SW 6 11 3 6 1007.8 1007.5 0.2
06/09:30pm 14.1 12.2 8.9 71 2.6 WSW 9 11 5 6 1007.8 1007.5 0.2
06/09:00pm 14.8 12.8 8.7 67 3.1 SSW 9 11 5 6 1007.5 1007.2 0.2
06/08:30pm 15.4 13.2 9.3 67 3.2 S 11 13 6 7 1007.4 1007.1 0.2
06/08:00pm 16.5 13.8 9.0 61 3.9 S 13 15 7 8 1007.6 1007.3 0.2
06/07:30pm 17.7 14.2 8.8 56 4.6 S 17 22 9 12 1007.7 1007.4 0.2
06/07:00pm 18.7 14.9 9.2 54 5.0 SSE 19 26 10 14 1007.5 1007.2 0.2
06/06:30pm 19.2 15.7 8.8 51 5.5 SSE 17 24 9 13 1007.5 1007.2 0.2
06/06:00pm 19.4 16.2 8.4 49 5.8 S 15 20 8 11 1007.6 1007.3 0.2
06/05:30pm 19.7 16.7 9.3 51 5.5 SSE 15 20 8 11 1007.8 1007.5 0.2
06/05:00pm 19.4 15.4 8.1 48 5.9 SSE 19 26 10 14 1008.2 1007.9 0.2
06/04:30pm 20.2 16.2 9.2 49 5.9 S 20 28 11 15 1008.5 1008.2 0.2
06/04:00pm 19.6 17.5 8.3 48 5.9 SSW 9 15 5 8 1008.6 1008.3 0.2
06/03:30pm 20.2 16.9 9.5 50 5.7 SSE 17 26 9 14 1008.8 1008.5 0.2
06/03:00pm 20.3 18.1 9.2 49 5.9 SW 11 22 6 12 1009.0 1008.7 0.2
06/02:30pm 19.7 16.7 10.7 56 4.9 SSE 17 28 9 15 1009.2 1008.9 0.2
06/02:00pm 18.3 14.4 8.6 53 5.1 S 19 32 10 17 1009.7 1009.4 0.2
06/01:30pm 17.8 14.0 9.7 59 4.3 SSW 20 28 11 15 1010.2 1009.9 0.0
06/01:00pm 18.4 14.8 10.0 58 4.5 S 19 28 10 15 1010.4 1010.1 0.0
06/12:30pm 17.4 14.2 10.1 62 3.9 SSW 17 24 9 13 1010.8 1010.5 0.0
06/12:00pm 18.0 15.3 8.8 55 4.8 SSW 13 19 7 10 1010.9 1010.6 0.0
06/11:30am 16.9 14.8 9.6 62 3.8 S 11 19 6 10 1011.1 1010.8 0.0
06/11:00am 17.5 13.8 9.4 59 4.3 SE 19 30 10 16 1011.2 1010.9 0.0
06/10:30am 16.5 13.7 10.1 66 3.4 S 15 26 8 14 1011.4 1011.1 0.0
06/10:00am 16.0 13.7 11.8 76 2.3 SSE 15 26 8 14 1011.7 1011.4 0.0
06/09:30am 14.5 11.1 11.3 81 1.7 SSE 20 26 11 14 1012.1 1011.8 0.0
06/09:00am 13.9 12.0 11.8 87 1.1 SW 13 17 7 9 1012.2 1011.9 1.0
06/08:48am 14.0 12.2 12.2 89 1.0 SW 13 17 7 9 1012.1 1011.8 1.0
06/08:30am 13.4 11.3 12.3 93 0.6 SW 15 19 8 10 1012.0 1011.7 1.0
06/08:00am 13.3 11.2 12.4 94 0.5 SW 15 19 8 10 1012.0 1011.7 1.0
06/07:30am 12.3 10.4 11.7 96 0.3 SW 13 17 7 9 1011.7 1011.4 1.0
06/07:00am 12.0 10.0 11.4 96 0.3 SW 13 19 7 10 1011.5 1011.2 1.0
06/06:30am 11.8 9.0 11.2 96 0.3 WSW 17 22 9 12 1011.4 1011.1 1.0
06/06:00am 11.7 9.2 11.1 96 0.3 SW 15 20 8 11 1011.4 1011.1 1.0
06/05:30am 11.6 8.1 10.8 95 0.4 WSW 20 28 11 15 1011.1 1010.8 0.8
06/05:00am 11.7 7.4 10.8 94 0.5 WSW 24 32 13 17 1011.2 1010.9 0.8
06/04:30am 11.6 6.9 10.7 94 0.5 WSW 26 35 14 19 1011.1 1010.8 0.8
06/04:09am 11.6 7.7 10.8 95 0.4 WSW 22 32 12 17 1011.1 1010.8 0.4
06/04:00am 11.5 7.2 10.7 95 0.4 WSW 24 32 13 17 1011.2 1010.9 0.4
06/03:45am 11.4 7.0 10.5 94 0.5 W 24 32 13 17 1011.2 1010.9 0.2
06/03:30am 11.3 6.9 10.5 95 0.4 W 24 30 13 16 1011.3 1011.0 0.2
06/03:22am 11.3 6.9 10.5 95 0.4 W 24 30 13 16 1011.3 1011.0 0.2
06/03:09am 11.3 7.0 10.7 96 0.3 W 24 30 13 16 1011.4 1011.1 0.2
06/03:00am 11.3 7.4 10.7 96 0.3 WSW 22 30 12 16 1011.5 1011.2 0.0
06/02:30am 11.3 7.4 10.7 96 0.3 WSW 22 30 12 16 1011.5 1011.2 0.0
06/02:00am 11.2 6.9 10.6 96 0.3 SW 24 30 13 16 1011.8 1011.5 0.0
06/01:54am 11.3 7.4 10.7 96 0.3 SW 22 30 12 16 1011.9 1011.6 0.0
06/01:30am 11.5 6.7 10.4 93 0.6 SW 26 35 14 19 1012.2 1011.9 0.0
06/01:24am 11.7 7.7 10.3 91 0.7 SW 22 35 12 19 1012.2 1011.9 0.0
06/01:00am 11.8 7.3 10.0 89 0.9 SW 24 30 13 16 1012.5 1012.2 0.0
06/12:30am 11.8 7.0 10.2 90 0.8 SW 26 35 14 19 1012.9 1012.7 0.0
06/12:00am 12.2 8.0 9.9 86 1.2 SW 22 35 12 19 1013.2 1013.0 0.0
 
Date/Time
EDT
Temp
°C
App
Temp
°C
Dew
Point
°C
Rel
Hum
%
Delta-T
°C
Wind Press
QNH
hPa
Press
MSL
hPa
Rain since
9am
mm
Dir  Spd
km/h
Gust
km/h
Spd
kts
Gust
kts
05/11:44pm 11.9 7.8 10.0 88 1.0 SW 22 30 12 16 1013.3 1013.1 0.0
05/11:30pm 11.9 8.2 10.1 89 0.9 SW 20 28 11 15 1013.5 1013.3 0.0
05/11:00pm 12.4 6.3 9.6 83 1.4 SW 32 39 17 21 1013.6 1013.4 0.0
05/10:57pm 12.3 5.9 9.3 82 1.5 SW 33 41 18 22 1013.6 1013.4 0.0
05/10:30pm 12.5 6.1 9.3 81 1.6 SW 33 44 18 24 1013.7 1013.5 0.0
05/10:18pm 12.7 6.8 9.2 79 1.8 SW 30 50 16 27 1013.7 1013.5 0.0
05/10:00pm 12.6 7.2 9.4 81 1.6 SW 28 44 15 24 1013.8 1013.6 0.0
05/09:40pm 12.1 6.0 9.7 85 1.2 SW 32 44 17 24 1013.7 1013.5 0.0
05/09:30pm 12.0 5.9 9.7 86 1.2 SW 32 46 17 25 1013.7 1013.5 0.0
05/09:14pm 12.2 5.9 9.6 84 1.3 SSW 33 46 18 25 1013.7 1013.5 0.0
05/09:00pm 13.3 6.7 8.6 73 2.4 SSW 33 48 18 26 1013.5 1013.3 0.0
05/08:30pm 13.8 7.8 8.6 71 2.6 SW 30 43 16 23 1013.3 1013.1 0.0
05/08:00pm 14.1 7.4 8.3 68 2.9 SW 33 46 18 25 1013.2 1013.0 0.0
05/07:30pm 14.4 7.9 8.8 69 2.9 SSW 33 48 18 26 1012.9 1012.7 0.0
05/07:00pm 14.6 9.1 9.2 70 2.8 SSW 28 50 15 27 1012.6 1012.3 0.0
05/06:30pm 14.8 8.6 9.4 70 2.8 SSW 32 50 17 27 1012.3 1012.0 0.0
05/06:05pm 15.5 9.2 9.6 68 3.1 SSW 33 52 18 28 1012.0 1011.7 0.0
05/06:00pm 15.6 8.2 9.7 68 3.1 SSW 39 54 21 29 1012.0 1011.7 0.0
05/05:48pm 15.6 8.9 9.5 67 3.2 SW 35 54 19 29 1011.9 1011.6 0.0
05/05:30pm 15.6 8.4 9.1 65 3.4 SSW 37 50 20 27 1011.9 1011.6 0.0
05/05:00pm 16.7 10.1 9.9 64 3.6 SSW 35 50 19 27 1011.7 1011.4 0.0
05/04:30pm 17.2 9.8 9.9 62 3.9 SSW 39 57 21 31 1011.6 1011.3 0.0
05/04:02pm 17.3 10.4 8.7 57 4.5 SSW 35 56 19 30 1011.6 1011.3 0.0
05/04:00pm 17.7 11.3 8.6 55 4.7 SSW 32 44 17 24 1011.5 1011.2 0.0
05/03:57pm 18.5 12.3 10.1 58 4.5 SSW 33 52 18 28 1011.5 1011.2 0.0
05/03:30pm 17.0 9.9 9.4 61 4.0 SSW 37 54 20 29 1011.6 1011.3 0.0
05/03:00pm 16.6 10.5 9.8 64 3.6 SSW 32 50 17 27 1011.8 1011.5 0.0
05/02:41pm 15.2 9.9 9.8 70 2.8 SSW 28 50 15 27 1011.9 1011.6 0.0
05/02:30pm 14.6 8.9 11.0 79 1.9 SSW 32 44 17 24 1012.0 1011.7 0.0
05/02:00pm 16.9 10.1 9.1 60 4.1 S 35 48 19 26 1011.7 1011.4 0.0
05/01:30pm 16.9 10.4 9.1 60 4.1 SSW 33 46 18 25 1011.7 1011.4 0.0
05/01:00pm 17.8 11.0 9.2 57 4.5 SSW 35 50 19 27 1011.7 1011.4 0.0
05/12:30pm 17.0 10.5 8.2 56 4.5 SSW 32 44 17 24 1011.5 1011.2 0.0
05/12:14pm 17.6 10.8 7.9 53 5.0 SSW 33 52 18 28 1011.3 1011.0 0.0
05/12:00pm 18.1 11.4 9.7 58 4.5 SSW 35 50 19 27 1011.3 1011.0 0.0
05/11:30am 16.2 9.3 8.9 62 3.8 SSW 35 50 19 27 1011.1 1010.8 0.0
05/11:23am 15.9 10.1 9.6 66 3.3 SSW 30 50 16 27 1011.0 1010.7 0.0
05/11:00am 14.4 8.4 10.8 79 1.9 SSW 33 46 18 25 1010.9 1010.6 0.0
05/10:30am 14.8 10.2 11.2 79 1.9 SW 26 35 14 19 1010.8 1010.5 0.0
05/10:05am 13.9 8.9 12.1 89 1.0 SW 30 48 16 26 1010.7 1010.4 0.0
05/10:02am 13.8 8.7 12.0 89 1.0 SW 30 48 16 26 1010.6 1010.3 0.0
05/10:00am 13.7 8.2 11.9 89 1.0 SW 32 48 17 26 1010.6 1010.3 0.0
05/09:54am 13.6 7.6 12.0 90 0.9 SW 35 50 19 27 1010.5 1010.2 0.0
05/09:49am 14.0 7.8 11.5 85 1.3 SSW 35 50 19 27 1010.5 1010.2 0.0
05/09:30am 15.9 10.1 11.5 75 2.4 SW 33 43 18 23 1010.1 1009.8 0.0
05/09:00am 15.2 10.1 12.0 81 1.7 SW 30 41 16 22 1009.9 1009.6 0.0
05/08:30am 14.9 10.0 12.4 85 1.4 SSW 30 46 16 25 1009.8 1009.5 0.0
05/08:27am 14.8 10.3 12.7 87 1.2 SW 28 46 15 25 1009.8 1009.5 0.0
05/08:20am 14.7 10.3 12.9 89 1.0 SW 28 39 15 21 1009.7 1009.4 0.0
05/08:00am 15.1 10.6 12.6 85 1.4 SW 28 35 15 19 1009.6 1009.3 0.0
05/07:30am 16.1 12.3 12.3 78 2.1 WSW 24 32 13 17 1009.4 1009.1 0.0
05/07:00am 16.1 13.2 12.3 78 2.1 WSW 19 26 10 14 1009.0 1008.7 0.0
05/06:30am 16.2 12.4 12.4 78 2.1 WSW 24 33 13 18 1008.9 1008.6 0.0
05/06:00am 16.4 14.0 12.6 78 2.1 SW 17 28 9 15 1008.5 1008.2 0.0
05/05:30am 16.4 13.7 12.8 79 2.0 WSW 19 26 10 14 1008.2 1007.9 0.0
05/05:00am 16.3 12.7 13.0 81 1.8 SW 24 32 13 17 1007.9 1007.6 0.0
05/04:30am 16.8 13.0 12.3 75 2.5 WSW 24 32 13 17 1007.9 1007.6 0.0
05/04:00am 16.8 13.8 12.7 77 2.3 WSW 20 32 11 17 1007.5 1007.2 0.0
05/03:30am 17.0 14.3 12.9 77 2.3 SW 19 26 10 14 1006.8 1006.5 0.0
05/03:00am 17.5 15.5 12.8 74 2.6 SSW 15 19 8 10 1006.8 1006.5 0.0
05/02:30am 18.4 16.3 12.4 68 3.4 SSW 15 22 8 12 1006.1 1005.9 0.0
05/02:00am 19.0 15.8 12.0 64 3.9 SSW 20 28 11 15 1006.7 1006.4 0.0
05/01:30am 19.6 15.6 11.9 61 4.3 SSW 24 35 13 19 1007.1 1006.8 0.0
05/01:00am 20.6 15.5 10.7 53 5.4 WSW 28 37 15 20 1007.3 1007.0 0.0
05/12:30am 22.3 18.8 13.4 57 5.2 SSW 24 37 13 20 1007.0 1006.7 0.0
05/12:00am 26.0 23.0 12.1 42 8.0 N 19 30 10 16 1006.1 1005.9 0.0
 
Date/Time
EDT
Temp
°C
App
Temp
°C
Dew
Point
°C
Rel
Hum
%
Delta-T
°C
Wind Press
QNH
hPa
Press
MSL
hPa
Rain since
9am
mm
Dir  Spd
km/h
Gust
km/h
Spd
kts
Gust
kts
04/11:30pm 24.5 21.1 12.5 47 6.9 NNE 22 32 12 17 1004.9 1004.6 0.0
04/11:00pm 25.0 20.4 12.2 44 7.4 N 28 37 15 20 1005.0 1004.7 0.0
04/10:30pm 25.6 21.3 12.1 43 7.8 N 26 33 14 18 1005.2 1004.9 0.0
04/10:00pm 26.3 22.4 10.9 38 8.7 N 22 28 12 15 1005.3 1005.0 0.0
04/09:30pm 26.4 23.1 10.9 38 8.8 N 19 22 10 12 1005.7 1005.5 0.0
04/09:00pm 27.6 23.9 10.3 34 9.8 N 20 24 11 13 1005.7 1005.5 0.0
04/08:30pm 27.7 24.6 11.7 37 9.2 N 19 20 10 11 1005.9 1005.7 0.0
04/08:00pm 29.3 26.4 10.9 32 10.6 N 17 19 9 10 1006.4 1006.1 0.0
04/07:30pm 29.9 27.3 11.9 33 10.5 N 17 20 9 11 1006.4 1006.1 0.0
04/07:00pm 31.6 28.4 9.8 26 12.5 N 17 22 9 12 1006.2 1006.0 0.0
04/06:30pm 32.5 29.1 9.3 24 13.2 N 17 22 9 12 1006.4 1006.1 0.0
04/06:00pm 31.9 28.8 8.8 24 13.0 NNW 15 22 8 12 1006.6 1006.3 0.0
04/05:30pm 33.7 30.0 10.3 24 13.6 N 20 35 11 19 1006.9 1006.6 0.0

Latest Capital City Observations: Canberra | Sydney | Melbourne | Brisbane | Adelaide | Perth | Hobart | Darwin

Other formats

Comma delimited format used in spreadsheet applications
http://www.bom.gov.au/fwo/IDV60901/IDV60901.94866.axf

JavaScript Object Notation format (JSON) in row-major order
http://www.bom.gov.au/fwo/IDV60901/IDV60901.94866.json

Data quality

Most of these data are generated automatically and are frequently updated. Quality checks on data are not normally performed. It is possible for incorrect values to appear. Refer to information at About Latest Weather Observations and please check the disclaimer before using these data.